createdAt,value
2018-11-29T00:00:52.131Z,946.22
2018-11-29T00:02:00.205Z,946.25
2018-11-29T00:03:08.340Z,946.19
2018-11-29T00:04:16.768Z,946.25
2018-11-29T00:05:24.468Z,946.29
2018-11-29T00:06:32.461Z,946.33
2018-11-29T00:07:40.503Z,946.34
2018-11-29T00:08:48.546Z,946.34
2018-11-29T00:09:56.858Z,946.36
2018-11-29T00:11:04.668Z,946.36
2018-11-29T00:12:12.767Z,946.34
2018-11-29T00:13:20.764Z,946.34
2018-11-29T00:14:28.920Z,946.34
2018-11-29T00:15:37.106Z,946.41
2018-11-29T00:16:44.940Z,946.41
2018-11-29T00:17:52.994Z,946.41
2018-11-29T00:19:01.157Z,946.35
2018-11-29T00:20:09.165Z,946.30
2018-11-29T00:21:17.266Z,946.30
2018-11-29T00:22:25.232Z,946.31
2018-11-29T00:23:33.377Z,946.33
2018-11-29T00:24:41.378Z,946.36
2018-11-29T00:25:49.482Z,946.37
2018-11-29T00:26:57.540Z,946.37
2018-11-29T00:28:05.609Z,946.35
2018-11-29T00:29:13.650Z,946.32
2018-11-29T00:30:21.807Z,946.30
2018-11-29T00:31:29.880Z,946.29
2018-11-29T00:32:37.931Z,946.26
2018-11-29T00:33:45.893Z,946.31
2018-11-29T00:34:53.927Z,946.28
2018-11-29T00:36:02.119Z,946.28
2018-11-29T00:37:09.997Z,946.21
2018-11-29T00:38:18.427Z,946.21
2018-11-29T00:39:26.184Z,946.12
2018-11-29T00:40:34.275Z,946.17
2018-11-29T00:41:42.247Z,946.13
2018-11-29T00:42:50.472Z,946.16
2018-11-29T00:43:58.348Z,946.21
2018-11-29T00:45:06.430Z,946.17
2018-11-29T00:46:14.612Z,946.22
2018-11-29T00:47:22.493Z,946.22
2018-11-29T00:48:30.679Z,946.22
2018-11-29T00:49:38.762Z,946.15
2018-11-29T00:50:46.661Z,946.16
2018-11-29T00:51:54.721Z,946.15
2018-11-29T00:53:02.922Z,946.18
2018-11-29T00:54:11.080Z,946.14
2018-11-29T00:55:19.139Z,946.15
2018-11-29T00:56:27.029Z,946.16
2018-11-29T00:57:35.028Z,946.14
2018-11-29T00:58:43.189Z,946.15
2018-11-29T00:59:51.320Z,946.18
2018-11-29T01:00:59.294Z,946.11
2018-11-29T01:02:07.443Z,946.15
2018-11-29T01:03:15.309Z,946.15
2018-11-29T01:04:23.405Z,946.12
2018-11-29T01:05:31.556Z,946.17
2018-11-29T01:06:39.570Z,946.19
2018-11-29T01:07:47.626Z,946.17
2018-11-29T01:08:55.682Z,946.18
2018-11-29T01:10:03.626Z,946.13
2018-11-29T01:11:11.923Z,946.17
2018-11-29T01:12:19.872Z,946.18
2018-11-29T01:13:27.922Z,946.20
2018-11-29T01:14:35.878Z,946.20
2018-11-29T01:15:43.920Z,946.22
2018-11-29T01:16:52.109Z,946.22
2018-11-29T01:18:00.105Z,946.24
2018-11-29T01:19:08.112Z,946.24
2018-11-29T01:20:16.254Z,946.26
2018-11-29T01:21:24.439Z,946.18
2018-11-29T01:22:32.504Z,946.16
2018-11-29T01:23:40.360Z,946.16
2018-11-29T01:24:48.527Z,946.12
2018-11-29T01:25:56.571Z,946.16
2018-11-29T01:27:04.637Z,946.14
2018-11-29T01:28:12.764Z,946.15
2018-11-29T01:29:20.682Z,946.13
2018-11-29T01:30:28.779Z,946.12
2018-11-29T01:31:36.755Z,946.12
2018-11-29T01:32:45.004Z,946.11
2018-11-29T01:33:52.867Z,946.10
2018-11-29T01:35:00.937Z,946.09
2018-11-29T01:36:08.998Z,946.06
2018-11-29T01:37:17.148Z,946.08
2018-11-29T01:38:25.201Z,946.08
2018-11-29T01:39:33.148Z,946.13
2018-11-29T01:40:41.205Z,946.11
2018-11-29T01:41:49.261Z,946.15
2018-11-29T01:42:57.334Z,946.15
2018-11-29T01:44:05.669Z,946.16
2018-11-29T01:45:13.428Z,946.15
2018-11-29T01:46:21.503Z,946.13
2018-11-29T01:47:29.764Z,946.10
2018-11-29T01:48:37.631Z,946.07
2018-11-29T01:49:45.919Z,946.05
2018-11-29T01:50:53.835Z,946.04
2018-11-29T01:52:01.902Z,945.99
2018-11-29T01:53:10.097Z,946.01
2018-11-29T01:54:17.914Z,946.01
2018-11-29T01:55:26.158Z,946.05
2018-11-29T01:56:34.082Z,946.07
2018-11-29T01:57:42.179Z,946.06
2018-11-29T01:58:50.179Z,946.11
2018-11-29T01:59:58.194Z,946.11
2018-11-29T02:01:06.469Z,946.13
2018-11-29T02:02:14.314Z,946.10
2018-11-29T02:03:22.560Z,946.09
2018-11-29T02:04:30.586Z,946.06
2018-11-29T02:05:38.589Z,946.04
2018-11-29T02:06:46.639Z,946.04
2018-11-29T02:07:54.694Z,945.99
2018-11-29T02:09:02.766Z,946.00
2018-11-29T02:10:10.842Z,945.96
2018-11-29T02:11:18.893Z,945.89
2018-11-29T02:12:27.023Z,945.90
2018-11-29T02:13:34.991Z,945.92
2018-11-29T02:14:43.034Z,945.97
2018-11-29T02:15:51.119Z,945.94
2018-11-29T02:16:59.187Z,945.97
2018-11-29T02:18:07.236Z,945.97
2018-11-29T02:19:15.397Z,945.99
2018-11-29T02:20:23.307Z,945.96
2018-11-29T02:21:31.413Z,945.99
2018-11-29T02:22:39.501Z,946.03
2018-11-29T02:23:47.425Z,946.00
2018-11-29T02:24:55.586Z,945.98
2018-11-29T02:26:03.698Z,945.97
2018-11-29T02:27:11.682Z,945.93
2018-11-29T02:28:19.769Z,945.91
2018-11-29T02:29:27.738Z,945.93
2018-11-29T02:30:35.794Z,945.93
2018-11-29T02:31:43.823Z,945.89
2018-11-29T02:32:51.915Z,945.84
2018-11-29T02:34:00.048Z,945.86
2018-11-29T02:35:08.130Z,945.84
2018-11-29T02:36:16.086Z,945.81
2018-11-29T02:37:24.115Z,945.76
2018-11-29T02:38:32.196Z,945.71
2018-11-29T02:39:40.350Z,945.65
2018-11-29T02:40:48.323Z,945.64
2018-11-29T02:41:56.371Z,945.61
2018-11-29T02:43:04.424Z,945.59
2018-11-29T02:44:12.490Z,945.55
2018-11-29T02:45:20.793Z,945.58
2018-11-29T02:46:28.599Z,945.57
2018-11-29T02:47:36.667Z,945.54
2018-11-29T02:48:44.738Z,945.50
2018-11-29T02:49:52.787Z,945.49
2018-11-29T02:51:00.947Z,945.46
2018-11-29T02:52:08.904Z,945.44
2018-11-29T02:53:16.951Z,945.38
2018-11-29T02:54:25.020Z,945.37
2018-11-29T02:55:33.069Z,945.43
2018-11-29T02:56:41.228Z,945.40
2018-11-29T02:57:49.190Z,945.39
2018-11-29T02:58:57.242Z,945.37
2018-11-29T03:00:05.308Z,945.35
2018-11-29T03:01:13.373Z,945.33
2018-11-29T03:02:21.525Z,945.31
2018-11-29T03:03:29.495Z,945.28
2018-11-29T03:04:37.544Z,945.30
2018-11-29T03:05:45.607Z,945.28
2018-11-29T03:06:53.729Z,945.21
2018-11-29T03:08:01.806Z,945.18
2018-11-29T03:09:09.776Z,945.21
2018-11-29T03:10:17.821Z,945.14
2018-11-29T03:11:25.893Z,945.09
2018-11-29T03:12:34.012Z,945.10
2018-11-29T03:13:42.019Z,945.08
2018-11-29T03:14:50.075Z,945.01
2018-11-29T03:15:58.123Z,945.01
2018-11-29T03:17:06.195Z,945.00
2018-11-29T03:18:14.323Z,944.95
2018-11-29T03:19:22.299Z,944.96
2018-11-29T03:20:30.367Z,944.96
2018-11-29T03:21:38.421Z,944.89
2018-11-29T03:22:46.560Z,944.92
2018-11-29T03:23:54.525Z,944.90
2018-11-29T03:25:02.598Z,944.87
2018-11-29T03:26:10.656Z,944.87
2018-11-29T03:27:18.702Z,944.89
2018-11-29T03:28:27.012Z,944.88
2018-11-29T03:29:34.932Z,944.90
2018-11-29T03:30:42.973Z,944.89
2018-11-29T03:31:50.978Z,944.88
2018-11-29T03:32:59.098Z,944.89
2018-11-29T03:34:07.155Z,944.89
2018-11-29T03:35:15.183Z,944.91
2018-11-29T03:36:23.213Z,944.88
2018-11-29T03:37:31.405Z,944.85
2018-11-29T03:38:39.380Z,944.83
2018-11-29T03:39:47.542Z,944.84
2018-11-29T03:40:55.458Z,944.82
2018-11-29T03:42:03.496Z,944.88
2018-11-29T03:43:11.544Z,944.86
2018-11-29T03:44:19.683Z,944.85
2018-11-29T03:45:27.787Z,944.84
2018-11-29T03:46:35.783Z,944.83
2018-11-29T03:47:43.737Z,944.83
2018-11-29T03:48:51.861Z,944.79
2018-11-29T03:50:00.018Z,944.81
2018-11-29T03:51:08.032Z,944.81
2018-11-29T03:52:16.092Z,944.83
2018-11-29T03:53:24.201Z,944.82
2018-11-29T03:54:32.173Z,944.78
2018-11-29T03:55:40.178Z,944.82
2018-11-29T03:56:48.340Z,944.82
2018-11-29T03:57:56.318Z,944.81
2018-11-29T03:59:04.416Z,944.77
2018-11-29T04:00:12.507Z,944.78
2018-11-29T04:01:20.535Z,944.77
2018-11-29T04:02:28.701Z,944.74
2018-11-29T04:03:36.571Z,944.76
2018-11-29T04:04:44.708Z,944.74
2018-11-29T04:05:52.783Z,944.77
2018-11-29T04:07:00.740Z,944.77
2018-11-29T04:08:08.923Z,944.76
2018-11-29T04:09:17.037Z,944.74
2018-11-29T04:10:24.919Z,944.74
2018-11-29T04:11:32.974Z,944.72
2018-11-29T04:12:41.224Z,944.70
2018-11-29T04:13:49.099Z,944.70
2018-11-29T04:14:57.356Z,944.72
2018-11-29T04:16:05.323Z,944.76
2018-11-29T04:17:13.341Z,944.72
2018-11-29T04:18:21.528Z,944.71
2018-11-29T04:19:29.378Z,944.72
2018-11-29T04:20:37.504Z,944.71
2018-11-29T04:21:45.487Z,944.71
2018-11-29T04:22:53.635Z,944.72
2018-11-29T04:24:01.801Z,944.67
2018-11-29T04:25:09.922Z,944.65
2018-11-29T04:26:17.809Z,944.61
2018-11-29T04:27:25.782Z,944.61
2018-11-29T04:28:34.030Z,944.51
2018-11-29T04:29:42.048Z,944.47
2018-11-29T04:30:50.018Z,944.53
2018-11-29T04:31:58.008Z,944.51
2018-11-29T04:33:06.177Z,944.48
2018-11-29T04:34:14.213Z,944.54
2018-11-29T04:35:22.487Z,944.42
2018-11-29T04:36:30.336Z,944.43
2018-11-29T04:37:38.352Z,944.39
2018-11-29T04:38:46.436Z,944.36
2018-11-29T04:39:54.511Z,944.37
2018-11-29T04:41:02.646Z,944.31
2018-11-29T04:42:10.527Z,944.30
2018-11-29T04:43:18.588Z,944.30
2018-11-29T04:44:26.678Z,944.29
2018-11-29T04:45:34.779Z,944.28
2018-11-29T04:46:42.962Z,944.27
2018-11-29T04:47:50.881Z,944.30
2018-11-29T04:48:58.873Z,944.32
2018-11-29T04:50:06.940Z,944.32
2018-11-29T04:51:15.085Z,944.31
2018-11-29T04:52:23.198Z,944.32
2018-11-29T04:53:31.104Z,944.26
2018-11-29T04:54:39.217Z,944.23
2018-11-29T04:55:47.216Z,944.25
2018-11-29T04:56:55.723Z,944.18
2018-11-29T04:58:03.459Z,944.16
2018-11-29T04:59:11.416Z,944.12
2018-11-29T05:00:19.444Z,944.08
2018-11-29T05:01:27.542Z,944.03
2018-11-29T05:02:35.652Z,944.02
2018-11-29T05:03:43.594Z,943.95
2018-11-29T05:04:51.756Z,943.93
2018-11-29T05:05:59.724Z,943.89
2018-11-29T05:07:07.780Z,943.88
2018-11-29T05:08:16.016Z,943.84
2018-11-29T05:09:23.982Z,943.86
2018-11-29T05:10:31.954Z,943.86
2018-11-29T05:11:40.237Z,943.83
2018-11-29T05:12:49.189Z,943.82
2018-11-29T05:13:56.242Z,943.85
2018-11-29T05:15:04.268Z,943.80
2018-11-29T05:16:12.316Z,943.84
2018-11-29T05:17:20.398Z,943.77
2018-11-29T05:18:28.626Z,943.86
2018-11-29T05:19:36.499Z,943.81
2018-11-29T05:20:44.515Z,943.88
2018-11-29T05:21:52.627Z,943.87
2018-11-29T05:23:00.714Z,943.84
2018-11-29T05:24:08.836Z,943.86
2018-11-29T05:25:17.079Z,943.88
2018-11-29T05:26:24.829Z,943.83
2018-11-29T05:27:33.001Z,943.81
2018-11-29T05:28:42.250Z,943.83
2018-11-29T05:29:49.096Z,943.79
2018-11-29T05:30:57.038Z,943.84
2018-11-29T05:32:05.133Z,943.82
2018-11-29T05:33:13.158Z,943.86
2018-11-29T05:34:21.216Z,943.88
2018-11-29T05:35:30.021Z,943.87
2018-11-29T05:36:37.351Z,943.86
2018-11-29T05:37:45.446Z,943.84
2018-11-29T05:38:53.612Z,943.81
2018-11-29T05:40:01.424Z,943.84
2018-11-29T05:41:09.718Z,943.79
2018-11-29T05:42:17.592Z,943.80
2018-11-29T05:43:25.641Z,943.77
2018-11-29T05:44:33.871Z,943.73
2018-11-29T05:45:41.707Z,943.73
2018-11-29T05:46:50.004Z,943.71
2018-11-29T05:47:57.836Z,943.64
2018-11-29T05:49:06.002Z,943.65
2018-11-29T05:50:13.962Z,943.68
2018-11-29T05:51:21.982Z,943.68
2018-11-29T05:53:40.975Z,943.67
2018-11-29T05:54:49.062Z,943.65
2018-11-29T05:55:57.108Z,943.60
2018-11-29T05:57:05.258Z,943.59
2018-11-29T05:58:13.319Z,943.56
2018-11-29T05:59:21.261Z,943.58
2018-11-29T06:00:29.413Z,943.53
2018-11-29T06:01:37.432Z,943.50
2018-11-29T06:02:45.480Z,943.50
2018-11-29T06:03:53.434Z,943.48
2018-11-29T06:05:01.495Z,943.48
2018-11-29T06:06:09.636Z,943.50
2018-11-29T06:07:17.720Z,943.49
2018-11-29T06:08:25.809Z,943.48
2018-11-29T06:09:34.120Z,943.48
2018-11-29T06:10:41.866Z,943.49
2018-11-29T06:11:49.876Z,943.51
2018-11-29T06:12:57.870Z,943.51
2018-11-29T06:14:06.235Z,943.48
2018-11-29T06:15:13.980Z,943.45
2018-11-29T06:16:22.058Z,943.47
2018-11-29T06:17:30.360Z,943.46
2018-11-29T06:18:38.163Z,943.43
2018-11-29T06:19:46.474Z,943.44
2018-11-29T06:20:54.493Z,943.45
2018-11-29T06:22:02.399Z,943.39
2018-11-29T06:23:10.505Z,943.42
2018-11-29T06:24:18.533Z,943.39
2018-11-29T06:25:26.727Z,943.38
2018-11-29T06:26:34.655Z,943.37
2018-11-29T06:27:42.634Z,943.37
2018-11-29T06:28:50.774Z,943.35
2018-11-29T06:29:58.804Z,943.39
2018-11-29T06:31:07.027Z,943.34
2018-11-29T06:32:14.875Z,943.41
2018-11-29T06:33:23.037Z,943.44
2018-11-29T06:34:30.962Z,943.44
2018-11-29T06:35:39.115Z,943.41
2018-11-29T06:36:47.264Z,943.46
2018-11-29T06:37:55.125Z,943.46
2018-11-29T06:39:03.273Z,943.53
2018-11-29T06:40:11.337Z,943.58
2018-11-29T06:41:19.359Z,943.56
2018-11-29T06:42:27.585Z,943.60
2018-11-29T06:43:35.401Z,943.60
2018-11-29T06:44:43.548Z,943.58
2018-11-29T06:45:51.533Z,943.61
2018-11-29T06:46:59.833Z,943.59
2018-11-29T06:48:07.736Z,943.59
2018-11-29T06:49:15.742Z,943.58
2018-11-29T06:50:23.850Z,943.57
2018-11-29T06:51:31.844Z,943.56
2018-11-29T06:52:40.064Z,943.53
2018-11-29T06:53:47.925Z,943.53
2018-11-29T06:54:56.099Z,943.55
2018-11-29T06:56:04.069Z,943.54
2018-11-29T06:57:12.389Z,943.57
2018-11-29T06:58:20.181Z,943.52
2018-11-29T06:59:28.218Z,943.52
2018-11-29T07:00:36.268Z,943.52
2018-11-29T07:01:44.415Z,943.53
2018-11-29T07:02:52.474Z,943.52
2018-11-29T07:04:00.428Z,943.52
2018-11-29T07:05:08.498Z,943.48
2018-11-29T07:06:16.647Z,943.43
2018-11-29T07:07:24.686Z,943.45
2018-11-29T07:08:32.756Z,943.40
2018-11-29T07:09:40.821Z,943.45
2018-11-29T07:10:48.777Z,943.43
2018-11-29T07:11:56.923Z,943.41
2018-11-29T07:13:05.099Z,943.44
2018-11-29T07:14:13.032Z,943.43
2018-11-29T07:15:21.009Z,943.41
2018-11-29T07:16:29.166Z,943.39
2018-11-29T07:17:37.323Z,943.42
2018-11-29T07:18:45.305Z,943.42
2018-11-29T07:19:53.233Z,943.40
2018-11-29T07:21:01.382Z,943.39
2018-11-29T07:22:09.437Z,943.36
2018-11-29T07:23:17.400Z,943.36
2018-11-29T07:24:25.734Z,943.34
2018-11-29T07:25:33.600Z,943.31
2018-11-29T07:26:41.577Z,943.31
2018-11-29T07:27:49.918Z,943.28
2018-11-29T07:28:57.743Z,943.30
2018-11-29T07:30:06.055Z,943.31
2018-11-29T07:31:13.830Z,943.32
2018-11-29T07:32:21.938Z,943.28
2018-11-29T07:33:29.933Z,943.32
2018-11-29T07:34:38.056Z,943.31
2018-11-29T07:35:46.203Z,943.27
2018-11-29T07:36:54.302Z,943.26
2018-11-29T07:38:02.190Z,943.34
2018-11-29T07:39:10.270Z,943.37
2018-11-29T07:40:18.246Z,943.40
2018-11-29T07:41:26.552Z,943.39
2018-11-29T07:42:34.548Z,943.45
2018-11-29T07:43:42.498Z,943.46
2018-11-29T07:44:50.572Z,943.45
2018-11-29T07:45:58.601Z,943.42
2018-11-29T07:47:06.683Z,943.42
2018-11-29T07:48:14.637Z,943.44
2018-11-29T07:49:22.793Z,943.43
2018-11-29T07:50:30.854Z,943.45
2018-11-29T07:51:38.910Z,943.47
2018-11-29T07:52:47.033Z,943.50
2018-11-29T07:53:55.029Z,943.49
2018-11-29T07:55:03.088Z,943.48
2018-11-29T07:56:11.083Z,943.49
2018-11-29T07:57:19.191Z,943.47
2018-11-29T07:58:27.395Z,943.49
2018-11-29T07:59:35.233Z,943.53
2018-11-29T08:00:43.359Z,943.48
2018-11-29T08:01:51.396Z,943.45
2018-11-29T08:02:59.479Z,943.43
2018-11-29T08:04:07.594Z,943.42
2018-11-29T08:05:15.526Z,943.48
2018-11-29T08:06:23.601Z,943.45
2018-11-29T08:07:31.743Z,943.46
2018-11-29T08:08:39.702Z,943.46
2018-11-29T08:09:47.925Z,943.49
2018-11-29T08:10:55.880Z,943.44
2018-11-29T08:12:03.975Z,943.46
2018-11-29T08:13:12.522Z,943.48
2018-11-29T08:14:20.841Z,943.44
2018-11-29T08:15:28.814Z,943.41
2018-11-29T08:16:36.784Z,943.44
2018-11-29T08:17:44.759Z,943.43
2018-11-29T08:18:52.914Z,943.42
2018-11-29T08:20:00.862Z,943.38
2018-11-29T08:21:09.019Z,943.38
2018-11-29T08:22:16.980Z,943.37
2018-11-29T08:23:25.029Z,943.40
2018-11-29T08:24:33.093Z,943.39
2018-11-29T08:25:41.163Z,943.41
2018-11-29T08:26:49.316Z,943.37
2018-11-29T08:27:57.258Z,943.39
2018-11-29T08:29:05.336Z,943.35
2018-11-29T08:30:13.469Z,943.35
2018-11-29T08:31:21.499Z,943.33
2018-11-29T08:32:29.598Z,943.35
2018-11-29T08:33:37.552Z,943.33
2018-11-29T08:34:45.624Z,943.38
2018-11-29T08:35:53.650Z,943.41
2018-11-29T08:37:01.755Z,943.47
2018-11-29T08:38:09.852Z,943.51
2018-11-29T08:39:17.854Z,943.51
2018-11-29T08:40:25.918Z,943.48
2018-11-29T08:41:33.958Z,943.49
2018-11-29T08:42:42.138Z,943.50
2018-11-29T08:43:50.105Z,943.48
2018-11-29T08:44:58.201Z,943.51
2018-11-29T08:46:06.313Z,943.52
2018-11-29T08:47:14.268Z,943.52
2018-11-29T08:48:22.372Z,943.50
2018-11-29T08:49:30.380Z,943.50
2018-11-29T08:50:38.460Z,943.48
2018-11-29T08:51:46.502Z,943.51
2018-11-29T08:52:54.674Z,943.46
2018-11-29T08:54:02.638Z,943.50
2018-11-29T08:55:10.687Z,943.47
2018-11-29T08:56:18.756Z,943.51
2018-11-29T08:57:26.808Z,943.49
2018-11-29T08:58:34.964Z,943.50
2018-11-29T08:59:42.925Z,943.54
2018-11-29T09:00:50.990Z,943.62
2018-11-29T09:01:59.144Z,943.61
2018-11-29T09:03:07.105Z,943.65
2018-11-29T09:04:15.250Z,943.67
2018-11-29T09:05:23.211Z,943.60
2018-11-29T09:06:31.275Z,943.61
2018-11-29T09:07:39.339Z,943.55
2018-11-29T09:08:47.397Z,943.53
2018-11-29T09:09:55.541Z,943.53
2018-11-29T09:11:03.509Z,943.51
2018-11-29T09:12:11.561Z,943.51
2018-11-29T09:13:19.640Z,943.50
2018-11-29T09:14:27.690Z,943.50
2018-11-29T09:15:35.852Z,943.49
2018-11-29T09:16:43.791Z,943.52
2018-11-29T09:17:51.974Z,943.51
2018-11-29T09:18:59.921Z,943.53
2018-11-29T09:20:07.987Z,943.54
2018-11-29T09:21:16.137Z,943.54
2018-11-29T09:22:24.085Z,943.54
2018-11-29T09:23:32.169Z,943.54
2018-11-29T09:24:40.210Z,943.54
2018-11-29T09:25:48.279Z,943.54
2018-11-29T09:26:56.426Z,943.54
2018-11-29T09:28:04.401Z,943.55
2018-11-29T09:29:13.773Z,943.53
2018-11-29T09:30:20.529Z,943.54
2018-11-29T09:31:28.572Z,943.50
2018-11-29T09:32:36.719Z,943.54
2018-11-29T09:33:44.690Z,943.52
2018-11-29T09:34:52.745Z,943.51
2018-11-29T09:36:00.808Z,943.50
2018-11-29T09:37:08.883Z,943.52
2018-11-29T09:38:17.017Z,943.46
2018-11-29T09:39:25.000Z,943.48
2018-11-29T09:40:33.200Z,943.45
2018-11-29T09:41:41.109Z,943.46
2018-11-29T09:42:49.265Z,943.49
2018-11-29T09:43:57.234Z,943.50
2018-11-29T09:45:05.295Z,943.48
2018-11-29T09:46:13.327Z,943.53
2018-11-29T09:47:21.395Z,943.52
2018-11-29T09:48:29.560Z,943.56
2018-11-29T09:49:37.525Z,943.57
2018-11-29T09:50:45.597Z,943.58
2018-11-29T09:51:53.629Z,943.57
2018-11-29T09:53:01.709Z,943.55
2018-11-29T09:54:10.243Z,943.50
2018-11-29T09:55:17.852Z,943.51
2018-11-29T09:56:25.877Z,943.47
2018-11-29T09:57:33.934Z,943.50
2018-11-29T09:58:42.038Z,943.51
2018-11-29T09:59:50.153Z,943.52
2018-11-29T10:00:58.126Z,943.53
2018-11-29T10:02:06.183Z,943.55
2018-11-29T10:03:14.229Z,943.47
2018-11-29T10:04:22.394Z,943.47
2018-11-29T10:05:30.448Z,943.43
2018-11-29T10:06:38.416Z,943.41
2018-11-29T10:07:46.482Z,943.42
2018-11-29T10:08:54.547Z,943.47
2018-11-29T10:10:02.604Z,943.51
2018-11-29T10:11:10.754Z,943.55
2018-11-29T10:12:18.728Z,943.65
2018-11-29T10:13:26.778Z,943.69
2018-11-29T10:14:34.826Z,943.63
2018-11-29T10:15:42.894Z,943.56
2018-11-29T10:16:51.063Z,943.58
2018-11-29T10:17:59.025Z,943.58
2018-11-29T10:19:07.086Z,943.56
2018-11-29T10:20:15.222Z,943.51
2018-11-29T10:21:23.190Z,943.49
2018-11-29T10:22:31.307Z,943.47
2018-11-29T10:23:39.321Z,943.41
2018-11-29T10:24:47.373Z,943.38
2018-11-29T10:25:55.431Z,943.32
2018-11-29T10:27:03.497Z,943.31
2018-11-29T10:28:11.661Z,943.26
2018-11-29T10:29:19.624Z,943.26
2018-11-29T10:30:27.671Z,943.24
2018-11-29T10:31:35.742Z,943.26
2018-11-29T10:32:43.843Z,943.25
2018-11-29T10:33:51.857Z,943.26
2018-11-29T10:34:59.934Z,943.19
2018-11-29T10:36:08.067Z,943.16
2018-11-29T10:37:16.030Z,943.09
2018-11-29T10:38:24.173Z,943.08
2018-11-29T10:39:32.164Z,943.06
2018-11-29T10:40:40.219Z,942.96
2018-11-29T10:41:48.272Z,942.99
2018-11-29T10:42:56.431Z,943.00
2018-11-29T10:44:04.384Z,943.01
2018-11-29T10:45:12.499Z,943.03
2018-11-29T10:46:20.527Z,943.04
2018-11-29T10:47:28.581Z,943.02
2018-11-29T10:48:36.685Z,943.06
2018-11-29T10:49:44.699Z,943.09
2018-11-29T10:50:52.753Z,943.09
2018-11-29T10:52:00.930Z,943.11
2018-11-29T10:53:08.892Z,943.16
2018-11-29T10:54:17.028Z,943.14
2018-11-29T10:55:25.009Z,943.15
2018-11-29T10:56:33.049Z,943.15
2018-11-29T10:57:41.124Z,943.21
2018-11-29T10:58:49.201Z,943.27
2018-11-29T10:59:58.416Z,943.33
2018-11-29T11:01:05.305Z,943.36
2018-11-29T11:02:13.345Z,943.32
2018-11-29T11:03:21.552Z,943.26
2018-11-29T11:04:29.490Z,943.28
2018-11-29T11:05:37.642Z,943.24
2018-11-29T11:06:45.613Z,943.25
2018-11-29T11:07:53.697Z,943.19
2018-11-29T11:09:01.711Z,943.18
2018-11-29T11:10:09.786Z,943.16
2018-11-29T11:11:17.919Z,943.16
2018-11-29T11:12:25.907Z,943.16
2018-11-29T11:13:33.962Z,943.19
2018-11-29T11:14:42.022Z,943.15
2018-11-29T11:15:50.092Z,943.19
2018-11-29T11:16:58.328Z,943.20
2018-11-29T11:18:06.216Z,943.17
2018-11-29T11:19:14.250Z,943.19
2018-11-29T11:20:22.341Z,943.20
2018-11-29T11:21:30.438Z,943.20
2018-11-29T11:22:38.551Z,943.16
2018-11-29T11:23:46.532Z,943.18
2018-11-29T11:24:54.595Z,943.15
2018-11-29T11:26:02.641Z,943.18
2018-11-29T11:27:10.708Z,943.19
2018-11-29T11:28:18.867Z,943.23
2018-11-29T11:29:26.841Z,943.17
2018-11-29T11:30:34.900Z,943.15
2018-11-29T11:31:42.953Z,943.07
2018-11-29T11:32:51.118Z,943.07
2018-11-29T11:33:59.102Z,943.02
2018-11-29T11:35:07.124Z,943.07
2018-11-29T11:36:15.194Z,943.05
2018-11-29T11:37:23.245Z,943.01
2018-11-29T11:38:31.411Z,943.06
2018-11-29T11:39:39.386Z,943.05
2018-11-29T11:40:47.435Z,943.05
2018-11-29T11:41:55.504Z,943.05
2018-11-29T11:43:05.192Z,943.08
2018-11-29T11:44:11.685Z,943.05
2018-11-29T11:45:19.687Z,943.02
2018-11-29T11:46:27.769Z,942.98
2018-11-29T11:47:35.811Z,942.91
2018-11-29T11:48:43.852Z,942.87
2018-11-29T11:49:52.045Z,942.85
2018-11-29T11:51:00.003Z,942.80
2018-11-29T11:52:08.268Z,942.75
2018-11-29T11:53:16.207Z,942.77
2018-11-29T11:54:24.175Z,942.72
2018-11-29T11:55:32.501Z,942.69
2018-11-29T11:56:40.303Z,942.70
2018-11-29T11:57:48.355Z,942.70
2018-11-29T11:58:56.435Z,942.69
2018-11-29T12:00:04.505Z,942.67
2018-11-29T12:01:12.659Z,942.69
2018-11-29T12:02:24.798Z,942.69
2018-11-29T12:03:28.681Z,942.72
2018-11-29T12:04:36.736Z,942.68
2018-11-29T12:05:44.801Z,942.66
2018-11-29T12:06:52.958Z,942.57
2018-11-29T12:08:01.015Z,942.63
2018-11-29T12:09:08.998Z,942.52
2018-11-29T12:10:17.038Z,942.54
2018-11-29T12:11:25.106Z,942.47
2018-11-29T12:12:33.215Z,942.48
2018-11-29T12:13:41.230Z,942.41
2018-11-29T12:14:49.293Z,942.35
2018-11-29T12:15:57.358Z,942.34
2018-11-29T12:17:05.409Z,942.31
2018-11-29T12:18:13.515Z,942.32
2018-11-29T12:19:21.549Z,942.33
2018-11-29T12:20:29.607Z,942.31
2018-11-29T12:21:37.656Z,942.31
2018-11-29T12:22:45.818Z,942.34
2018-11-29T12:23:53.768Z,942.30
2018-11-29T12:25:01.830Z,942.33
2018-11-29T12:26:10.037Z,942.32
2018-11-29T12:27:18.003Z,942.30
2018-11-29T12:28:26.135Z,942.27
2018-11-29T12:29:34.085Z,942.25
2018-11-29T12:30:42.160Z,942.20
2018-11-29T12:31:50.221Z,942.24
2018-11-29T12:32:58.284Z,942.25
2018-11-29T12:34:06.428Z,942.27
2018-11-29T12:35:14.407Z,942.26
2018-11-29T12:36:22.476Z,942.25
2018-11-29T12:37:30.528Z,942.21
2018-11-29T12:38:38.686Z,942.17
2018-11-29T12:39:46.741Z,942.13
2018-11-29T12:40:54.722Z,942.18
2018-11-29T12:42:02.819Z,942.15
2018-11-29T12:43:10.835Z,942.13
2018-11-29T12:44:18.906Z,942.16
2018-11-29T12:45:28.655Z,942.16
2018-11-29T12:46:36.660Z,942.16
2018-11-29T12:47:44.702Z,942.19
2018-11-29T12:48:52.758Z,942.17
2018-11-29T12:50:00.820Z,942.18
2018-11-29T12:51:09.122Z,942.18
2018-11-29T12:52:38.216Z,942.20
2018-11-29T12:53:27.024Z,942.19
2018-11-29T12:56:18.196Z,942.20
2018-11-29T12:58:43.317Z,942.17
2018-11-29T12:59:51.367Z,942.12
2018-11-29T13:00:59.437Z,942.12
2018-11-29T13:02:07.612Z,942.15
2018-11-29T13:03:15.555Z,942.09
2018-11-29T13:04:23.592Z,942.08
2018-11-29T13:05:31.673Z,942.09
2018-11-29T13:06:39.739Z,942.05
2018-11-29T13:07:47.853Z,941.99
2018-11-29T13:08:55.867Z,942.00
2018-11-29T13:10:03.921Z,941.95
2018-11-29T13:11:12.082Z,941.96
2018-11-29T13:12:20.059Z,941.98
2018-11-29T13:13:28.107Z,941.98
2018-11-29T13:14:36.179Z,942.01
2018-11-29T13:15:44.230Z,942.04
2018-11-29T13:16:52.304Z,942.08
2018-11-29T13:18:00.450Z,942.09
2018-11-29T13:19:08.433Z,942.13
2018-11-29T13:20:16.493Z,942.10
2018-11-29T13:21:24.542Z,942.04
2018-11-29T13:22:33.223Z,941.98
2018-11-29T13:23:40.670Z,941.94
2018-11-29T13:24:48.730Z,941.93
2018-11-29T13:25:56.769Z,941.92
2018-11-29T13:27:04.965Z,941.86
2018-11-29T13:28:13.001Z,941.84
2018-11-29T13:29:20.980Z,941.79
2018-11-29T13:31:45.801Z,941.69
2018-11-29T13:32:53.835Z,941.70
2018-11-29T13:34:01.997Z,941.71
2018-11-29T13:35:09.962Z,941.77
2018-11-29T13:36:18.065Z,941.80
2018-11-29T13:37:26.148Z,941.76
2018-11-29T13:38:34.126Z,941.74
2018-11-29T13:39:42.303Z,941.69
2018-11-29T13:40:50.991Z,941.68
2018-11-29T13:41:58.349Z,941.68
2018-11-29T13:43:06.407Z,941.65
2018-11-29T13:44:14.447Z,941.69
2018-11-29T13:45:22.618Z,941.63
2018-11-29T13:46:30.572Z,941.62
2018-11-29T13:47:38.648Z,941.62
2018-11-29T13:48:46.706Z,941.59
2018-11-29T13:49:54.910Z,941.63
2018-11-29T13:51:02.913Z,941.57
2018-11-29T13:52:10.939Z,941.55
2018-11-29T13:53:18.932Z,941.59
2018-11-29T13:54:27.017Z,941.62
2018-11-29T13:55:35.121Z,941.63
2018-11-29T13:56:43.235Z,941.61
2018-11-29T13:57:51.301Z,941.63
2018-11-29T13:58:59.252Z,941.64
2018-11-29T14:00:07.315Z,941.63
2018-11-29T14:01:15.366Z,941.62
2018-11-29T14:02:23.517Z,941.63
2018-11-29T14:03:31.515Z,941.65
2018-11-29T14:04:39.563Z,941.63
2018-11-29T14:05:47.619Z,941.62
2018-11-29T14:06:55.692Z,941.67
2018-11-29T14:08:03.765Z,941.63
2018-11-29T14:09:11.810Z,941.65
2018-11-29T14:10:19.861Z,941.66
2018-11-29T14:11:27.923Z,941.68
2018-11-29T14:12:36.071Z,941.65
2018-11-29T14:13:44.019Z,941.63
2018-11-29T14:14:52.119Z,941.62